createdAt,value
2023-05-08T00:03:53.936Z,4.18
2023-05-08T00:08:56.155Z,4.78
2023-05-08T00:13:57.968Z,10.10
2023-05-08T00:19:00.652Z,10.30
2023-05-08T00:24:02.521Z,4.95
2023-05-08T00:29:06.511Z,5.63
2023-05-08T00:34:08.963Z,6.38
2023-05-08T00:39:10.794Z,5.35
2023-05-08T00:44:12.640Z,5.97
2023-05-08T00:49:16.074Z,6.00
2023-05-08T00:54:18.347Z,7.10
2023-05-08T00:59:22.889Z,5.43
2023-05-08T01:04:25.365Z,7.10
2023-05-08T01:09:27.283Z,8.85
2023-05-08T01:14:55.193Z,5.63
2023-05-08T01:20:36.884Z,6.00
2023-05-08T01:26:03.374Z,9.15
2023-05-08T01:31:21.931Z,10.93
2023-05-08T01:36:32.065Z,7.30
2023-05-08T01:41:37.005Z,6.00
2023-05-08T01:46:39.027Z,11.30
2023-05-08T01:51:46.023Z,6.75
2023-05-08T01:56:50.415Z,6.50
2023-05-08T02:01:57.062Z,6.82
2023-05-08T02:07:01.128Z,8.23
2023-05-08T02:12:06.791Z,8.75
2023-05-08T02:17:10.586Z,9.55
2023-05-08T02:22:14.051Z,6.55
2023-05-08T02:27:16.887Z,7.82
2023-05-08T02:32:20.953Z,5.22
2023-05-08T02:37:24.306Z,7.82
2023-05-08T02:42:26.520Z,9.82
2023-05-08T02:47:40.125Z,7.70
2023-05-08T02:52:49.714Z,7.15
2023-05-08T02:57:54.510Z,5.53
2023-05-08T03:03:01.586Z,6.22
2023-05-08T03:08:08.136Z,6.73
2023-05-08T03:13:12.470Z,8.48
2023-05-08T03:18:21.231Z,9.27
2023-05-08T03:23:26.516Z,6.57
2023-05-08T03:28:30.628Z,6.28
2023-05-08T03:33:37.267Z,6.80
2023-05-08T03:38:39.684Z,8.20
2023-05-08T03:43:44.050Z,6.20
2023-05-08T03:48:47.509Z,7.28
2023-05-08T03:53:49.717Z,8.43
2023-05-08T03:59:21.744Z,7.18
2023-05-08T04:04:39.999Z,8.90
2023-05-08T04:09:53.436Z,7.22
2023-05-08T04:15:01.487Z,5.13
2023-05-08T04:20:07.156Z,5.20
2023-05-08T04:25:11.783Z,5.47
2023-05-08T04:30:15.193Z,5.35
2023-05-08T04:35:18.333Z,5.50
2023-05-08T04:40:21.368Z,5.03
2023-05-08T04:45:23.409Z,5.05
2023-05-08T04:50:25.839Z,5.85
2023-05-08T04:55:28.104Z,6.88
2023-05-08T05:00:30.676Z,6.97
2023-05-08T05:05:36.421Z,6.30
2023-05-08T05:10:40.832Z,5.32
2023-05-08T05:15:43.770Z,4.35
2023-05-08T05:20:46.469Z,5.25
2023-05-08T05:25:49.199Z,6.10
2023-05-08T05:30:51.819Z,5.63
2023-05-08T05:35:53.727Z,5.82
2023-05-08T05:40:55.688Z,6.30
2023-05-08T05:46:07.501Z,6.47
2023-05-08T05:51:10.070Z,7.20
2023-05-08T05:56:12.102Z,5.00
2023-05-08T06:01:14.056Z,5.38
2023-05-08T06:06:16.023Z,5.97
2023-05-08T06:11:17.919Z,5.63
2023-05-08T06:16:24.508Z,5.15
2023-05-08T06:21:26.860Z,5.20
2023-05-08T06:26:28.788Z,5.93
2023-05-08T06:31:30.709Z,4.50
2023-05-08T06:36:32.821Z,4.78
2023-05-08T06:41:34.688Z,5.80
2023-05-08T06:46:36.527Z,4.82
2023-05-08T06:51:39.547Z,8.18
2023-05-08T06:56:44.762Z,3.95
2023-05-08T07:01:46.620Z,4.80
2023-05-08T07:06:48.453Z,6.85
2023-05-08T07:11:50.301Z,5.85
2023-05-08T07:16:52.040Z,4.68
2023-05-08T07:21:54.871Z,8.85
2023-05-08T07:26:56.917Z,6.45
2023-05-08T07:31:58.839Z,2.85
2023-05-08T07:37:00.761Z,2.50
2023-05-08T07:42:06.089Z,5.05
2023-05-08T07:47:07.968Z,8.50
2023-05-08T07:52:10.074Z,3.72
2023-05-08T07:57:11.936Z,3.78
2023-05-08T08:02:14.558Z,3.65
2023-05-08T08:07:16.814Z,2.83
2023-05-08T08:12:18.732Z,4.13
2023-05-08T08:17:20.758Z,3.88
2023-05-08T08:22:23.071Z,2.00
2023-05-08T08:27:25.129Z,3.05
2023-05-08T08:32:27.014Z,2.30
2023-05-08T08:37:29.386Z,3.25
2023-05-08T08:42:31.725Z,2.53
2023-05-08T08:47:41.562Z,2.13
2023-05-08T08:53:01.308Z,3.75
2023-05-08T08:58:24.256Z,4.55
2023-05-08T09:03:27.083Z,2.05
2023-05-08T09:08:29.217Z,2.45
2023-05-08T09:13:31.307Z,1.70
2023-05-08T09:18:33.649Z,1.20
2023-05-08T09:23:59.305Z,6.63
2023-05-08T09:29:18.848Z,1.73
2023-05-08T09:34:28.134Z,1.55
2023-05-08T09:39:30.077Z,0.85
2023-05-08T09:44:51.855Z,1.77
2023-05-08T09:49:57.054Z,1.10
2023-05-08T09:55:03.988Z,1.95
2023-05-08T10:00:06.414Z,2.03
2023-05-08T10:05:32.915Z,2.50
2023-05-08T10:10:37.049Z,1.13
2023-05-08T10:15:42.429Z,0.93
2023-05-08T10:20:48.910Z,2.13
2023-05-08T10:26:02.696Z,1.05
2023-05-08T10:31:07.420Z,0.80
2023-05-08T10:36:10.300Z,2.00
2023-05-08T10:41:13.455Z,1.52
2023-05-08T10:46:56.644Z,1.20
2023-05-08T10:52:12.927Z,1.98
2023-05-08T10:57:15.714Z,1.67
2023-05-08T11:02:28.938Z,2.00
2023-05-08T11:07:57.424Z,1.90
2023-05-08T11:18:05.088Z,2.58
2023-05-08T11:23:27.435Z,0.75
2023-05-08T11:28:58.706Z,1.40
2023-05-08T11:34:00.585Z,6.05
2023-05-08T11:39:07.904Z,0.80
2023-05-08T11:44:20.125Z,0.52
2023-05-08T11:49:27.404Z,1.63
2023-05-08T11:54:32.056Z,0.45
2023-05-08T11:59:37.658Z,2.55
2023-05-08T12:04:48.199Z,0.95
2023-05-08T12:09:50.356Z,1.95
2023-05-08T12:14:52.241Z,0.60
2023-05-08T12:19:59.090Z,5.75
2023-05-08T12:25:04.784Z,0.70
2023-05-08T12:30:09.343Z,0.75
2023-05-08T12:35:12.858Z,0.60
2023-05-08T12:40:46.733Z,1.33
2023-05-08T12:45:54.108Z,1.77
2023-05-08T12:51:02.462Z,0.82
2023-05-08T12:56:05.018Z,2.05
2023-05-08T13:01:13.719Z,2.17
2023-05-08T13:06:22.512Z,2.50
2023-05-08T13:11:33.305Z,0.85
2023-05-08T13:16:46.136Z,0.80
2023-05-08T13:21:48.217Z,1.42
2023-05-08T13:26:50.140Z,1.13
2023-05-08T13:31:52.235Z,1.33
2023-05-08T13:36:54.260Z,4.22
2023-05-08T13:41:56.095Z,1.10
2023-05-08T13:46:58.043Z,0.68
2023-05-08T13:51:59.884Z,0.68
2023-05-08T13:57:02.807Z,1.15
2023-05-08T14:02:04.679Z,0.60
2023-05-08T14:07:06.989Z,0.70
2023-05-08T14:12:09.296Z,1.38
2023-05-08T14:17:11.440Z,0.85
2023-05-08T14:22:13.249Z,0.90
2023-05-08T14:27:15.217Z,0.55
2023-05-08T14:32:17.013Z,2.42
2023-05-08T14:37:18.850Z,1.75
2023-05-08T14:42:23.635Z,1.30
2023-05-08T14:47:26.117Z,0.90
2023-05-08T14:52:27.987Z,1.02
2023-05-08T14:57:29.969Z,0.82
2023-05-08T15:02:31.991Z,1.77
2023-05-08T15:07:34.869Z,1.27
2023-05-08T15:12:36.853Z,2.78
2023-05-08T15:17:41.538Z,4.28
2023-05-08T15:22:43.742Z,2.28
2023-05-08T15:27:46.085Z,2.22
2023-05-08T15:32:48.761Z,1.80
2023-05-08T15:37:50.961Z,1.63
2023-05-08T15:42:52.732Z,2.88
2023-05-08T15:47:54.581Z,6.57
2023-05-08T15:52:56.362Z,1.75
2023-05-08T15:57:58.107Z,2.10
2023-05-08T16:03:00.269Z,2.40
2023-05-08T16:08:02.381Z,4.65
2023-05-08T16:13:04.346Z,2.35
2023-05-08T16:18:06.738Z,2.10
2023-05-08T16:23:08.995Z,3.65
2023-05-08T16:28:10.763Z,2.65
2023-05-08T16:33:12.735Z,1.73
2023-05-08T16:38:14.592Z,2.10
2023-05-08T16:43:16.439Z,2.63
2023-05-08T16:48:18.236Z,4.20
2023-05-08T16:53:20.146Z,2.75
2023-05-08T16:58:22.997Z,2.70
2023-05-08T17:03:25.151Z,3.78
2023-05-08T17:08:27.122Z,2.03
2023-05-08T17:13:29.182Z,3.13
2023-05-08T17:18:31.337Z,2.28
2023-05-08T17:23:33.228Z,2.65
2023-05-08T17:28:35.104Z,3.28
2023-05-08T17:33:37.896Z,3.40
2023-05-08T17:38:46.125Z,3.78
2023-05-08T17:43:48.045Z,2.50
2023-05-08T17:48:50.146Z,2.10
2023-05-08T17:53:53.186Z,2.88
2023-05-08T17:58:55.699Z,3.25
2023-05-08T18:03:57.596Z,4.32
2023-05-08T18:08:59.375Z,3.08
2023-05-08T18:14:01.220Z,8.00
2023-05-08T18:19:02.976Z,5.22
2023-05-08T18:24:05.814Z,3.10
2023-05-08T18:29:07.958Z,3.28
2023-05-08T18:34:09.827Z,3.05
2023-05-08T18:39:11.912Z,5.07
2023-05-08T18:44:15.010Z,3.90
2023-05-08T18:49:16.919Z,5.18
2023-05-08T18:54:18.978Z,5.00
2023-05-08T18:59:21.599Z,4.00
2023-05-08T19:04:23.474Z,3.42
2023-05-08T19:09:25.481Z,9.60
2023-05-08T19:14:27.391Z,4.32
2023-05-08T19:19:29.691Z,5.95
2023-05-08T19:24:31.982Z,5.35
2023-05-08T19:29:35.465Z,7.45
2023-05-08T19:34:39.783Z,5.22
2023-05-08T19:39:44.518Z,3.70
2023-05-08T19:44:46.428Z,4.88
2023-05-08T19:49:49.350Z,5.15
2023-05-08T19:54:51.158Z,5.13
2023-05-08T19:59:53.239Z,7.53
2023-05-08T20:05:21.273Z,5.78
2023-05-08T20:10:16.870Z,7.45
2023-05-08T20:15:18.783Z,8.27
2023-05-08T20:20:21.841Z,5.28
2023-05-08T20:25:23.917Z,9.63
2023-05-08T20:30:25.984Z,4.82
2023-05-08T20:35:27.977Z,5.68
2023-05-08T20:40:29.916Z,4.70
2023-05-08T20:45:31.771Z,10.52
2023-05-08T20:50:33.627Z,7.30
2023-05-08T20:55:35.487Z,3.47
2023-05-08T21:00:37.317Z,9.63
2023-05-08T21:05:39.146Z,4.80
2023-05-08T21:10:41.032Z,9.65
2023-05-08T21:15:42.816Z,5.97
2023-05-08T21:20:50.471Z,4.53
2023-05-08T21:25:53.136Z,6.47
2023-05-08T21:30:54.855Z,5.03
2023-05-08T21:35:56.642Z,5.05
2023-05-08T21:41:08.415Z,5.47
2023-05-08T21:46:10.380Z,6.97
2023-05-08T21:51:12.346Z,6.75
2023-05-08T21:56:14.214Z,6.00
2023-05-08T22:01:16.192Z,5.18
2023-05-08T22:06:17.988Z,4.63
2023-05-08T22:11:19.730Z,3.10
2023-05-08T22:16:21.582Z,3.33
2023-05-08T22:21:23.421Z,4.60
2023-05-08T22:26:25.297Z,2.45
2023-05-08T22:31:27.131Z,6.55
2023-05-08T22:36:29.289Z,2.70
2023-05-08T22:41:31.222Z,9.10
2023-05-08T22:46:34.385Z,7.93
2023-05-08T22:51:36.727Z,6.18
2023-05-08T22:56:38.587Z,3.17
2023-05-08T23:01:40.535Z,2.97
2023-05-08T23:06:42.408Z,3.47
2023-05-08T23:11:44.256Z,3.53
2023-05-08T23:16:46.323Z,4.13
2023-05-08T23:21:48.242Z,7.88
2023-05-08T23:26:52.544Z,4.57
2023-05-08T23:31:54.530Z,6.65
2023-05-08T23:36:56.363Z,2.75
2023-05-08T23:41:58.184Z,7.00
2023-05-08T23:47:00.126Z,4.75
2023-05-08T23:52:02.196Z,5.05
2023-05-08T23:57:04.145Z,4.72
